Time;durP1;ratioP1;P1;durP2;ratioP2;P2;SDS_P1;SDS_P2;PMS_P1;PMS_P2;Temp;Humidity;BMP_temperature;BMP_pressure;BME280_temperature;BME280_humidity;BME280_pressure;Samples;Min_cycle;Max_cycle;Signal;HPM_P1;HPM_P2
2022/08/31 00:04:26;;;;;;;;;;;;;;;26.19;47.65;99740.81;2062514;28;19918;-58
2022/08/31 00:05:26;;;;;;;;;;;;;;;26.18;47.70;99744.63;2066230;28;19940;-58
2022/08/31 00:06:30;;;;;;;;;;;;;;;26.19;47.74;99745.47;2063701;28;19914;-58
2022/08/31 00:07:33;;;;;;;;;;;;;;;26.20;47.79;99749.94;2066300;28;20001;-58
2022/08/31 00:08:33;;;;;;;;;;;;;;;26.19;47.78;99735.28;2064377;28;19914;-58
2022/08/31 00:09:34;;;;;;;;;;;;;;;26.19;47.73;99739.94;2061699;28;19976;-58
2022/08/31 00:10:34;;;;;;;;;;;;;;;26.19;47.77;99740.81;2064635;28;20016;-57
2022/08/31 00:11:35;;;;;;;;;;;;;;;26.21;47.63;99737.84;2064472;28;21371;-57
2022/08/31 00:12:35;;;;;;;;;;;;;;;26.20;47.53;99733.38;2069776;28;19913;-59
2022/08/31 00:13:36;;;;;;;;;;;;;;;26.20;47.42;99733.38;2065672;28;19933;-58
2022/08/31 00:14:36;;;;;;;;;;;;;;;26.20;47.65;99730.63;2065344;28;20068;-58
2022/08/31 00:15:36;;;;;;;;;;;;;;;26.20;47.70;99731.47;2056216;28;20493;-59
2022/08/31 00:16:38;;;;;;;;;;;;;;;26.20;47.66;99730.63;2065137;28;20028;-58
2022/08/31 00:17:39;;;;;;;;;;;;;;;26.20;47.36;99727.84;2067364;28;20018;-58
2022/08/31 00:18:40;;;;;;;;;;;;;;;26.20;47.41;99728.69;2062793;28;20012;-58
2022/08/31 00:19:40;;;;;;;;;;;;;;;26.21;47.65;99735.06;2065071;28;20003;-58
2022/08/31 00:20:41;;;;;;;;;;;;;;;26.20;47.68;99731.47;2066302;28;19928;-59
2022/08/31 00:21:42;;;;;;;;;;;;;;;26.21;47.35;99737.84;2065305;28;20653;-58
2022/08/31 00:22:42;;;;;;;;;;;;;;;26.20;47.41;99742.50;2058428;28;19925;-57
2022/08/31 00:23:42;;;;;;;;;;;;;;;26.21;47.62;99732.31;2065641;28;20338;-58
2022/08/31 00:24:42;;;;;;;;;;;;;;;26.21;47.46;99740.59;2064272;28;19961;-58
2022/08/31 00:25:44;;;;;;;;;;;;;;;26.21;47.63;99737.84;2066682;28;19940;-59
2022/08/31 00:26:44;;;;;;;;;;;;;;;26.20;47.43;99733.38;2064507;28;20003;-58
2022/08/31 00:27:45;;;;;;;;;;;;;;;26.21;47.62;99737.84;2065199;28;19917;-58
2022/08/31 00:28:45;;;;;;;;;;;;;;;26.21;47.56;99737.84;2065601;28;19918;-58
2022/08/31 00:29:45;;;;;;;;;;;;;;;26.21;47.65;99737.84;2061625;28;19929;-58
2022/08/31 00:30:46;;;;;;;;;;;;;;;26.21;47.67;99735.06;2065095;28;19935;-59
2022/08/31 00:31:46;;;;;;;;;;;;;;;26.21;47.40;99735.06;2064658;28;20004;-59
2022/08/31 00:32:47;;;;;;;;;;;;;;;26.20;47.64;99736.97;2059878;28;19918;-58
2022/08/31 00:33:51;;;;;;;;;;;;;;;26.21;47.34;99737.84;2064517;28;20019;-58
2022/08/31 00:34:51;;;;;;;;;;;;;;;26.20;47.53;99736.97;2065212;28;19913;-58
2022/08/31 00:35:52;;;;;;;;;;;;;;;26.19;47.37;99743.59;2065016;28;20138;-59
2022/08/31 00:39:07;;;;;;;;;;;;;;;26.20;47.34;99730.63;2063389;28;19918;-57
2022/08/31 00:40:08;;;;;;;;;;;;;;;26.19;47.65;99731.66;2062169;28;19905;-57
2022/08/31 00:41:09;;;;;;;;;;;;;;;26.19;47.66;99731.66;2066604;28;19937;-59
2022/08/31 00:42:11;;;;;;;;;;;;;;;26.19;47.62;99728.88;2067185;28;19970;-59
2022/08/31 00:43:29;;;;;;;;;;;;;;;26.19;47.52;99726.13;2065587;28;19923;-58
2022/08/31 00:44:29;;;;;;;;;;;;;;;26.19;47.73;99728.88;2057568;28;19918;-58
2022/08/31 00:45:30;;;;;;;;;;;;;;;26.20;47.51;99725.09;2057795;28;19953;-59
2022/08/31 00:46:32;;;;;;;;;;;;;;;26.19;47.73;99734.41;2061815;28;19928;-58
2022/08/31 00:47:33;;;;;;;;;;;;;;;26.18;47.80;99733.56;2066993;28;20068;-58
2022/08/31 00:48:36;;;;;;;;;;;;;;;26.19;47.59;99731.66;2065230;28;20044;-58
2022/08/31 00:49:38;;;;;;;;;;;;;;;26.19;47.49;99731.66;2065220;28;19936;-58
2022/08/31 00:50:38;;;;;;;;;;;;;;;26.19;47.63;99734.41;2066103;28;19917;-58
2022/08/31 00:51:40;;;;;;;;;;;;;;;26.19;47.40;99728.88;2062914;28;20241;-57
2022/08/31 00:52:43;;;;;;;;;;;;;;;26.19;47.71;99728.88;2061844;28;20361;-57
2022/08/31 00:53:44;;;;;;;;;;;;;;;26.18;47.84;99722.53;2064813;28;19965;-58
2022/08/31 00:54:51;;;;;;;;;;;;;;;26.19;47.42;99729.78;2065041;28;19921;-57
2022/08/31 00:55:51;;;;;;;;;;;;;;;26.19;47.34;99717.84;2066342;28;19948;-57
2022/08/31 00:56:52;;;;;;;;;;;;;;;26.19;47.46;99721.47;2064179;28;19917;-58
2022/08/31 00:57:54;;;;;;;;;;;;;;;26.19;47.40;99715.06;2067267;28;20004;-57
2022/08/31 00:58:54;;;;;;;;;;;;;;;26.19;47.54;99715.06;2066675;28;19914;-58
2022/08/31 00:59:55;;;;;;;;;;;;;;;26.19;47.33;99713.19;2066448;28;19918;-57
2022/08/31 01:00:56;;;;;;;;;;;;;;;26.20;47.54;99714.03;2068411;28;19917;-61
2022/08/31 01:01:57;;;;;;;;;;;;;;;26.19;47.46;99712.31;2064352;28;19913;-57
2022/08/31 01:03:00;;;;;;;;;;;;;;;26.19;47.38;99710.44;2066195;28;20063;-58
2022/08/31 01:04:01;;;;;;;;;;;;;;;26.20;47.43;99714.03;2066707;28;19917;-58
2022/08/31 01:05:01;;;;;;;;;;;;;;;26.19;47.63;99713.19;2066434;28;19917;-57
2022/08/31 01:06:02;;;;;;;;;;;;;;;26.20;47.35;99711.28;2062083;28;19914;-58
2022/08/31 01:07:03;;;;;;;;;;;;;;;26.20;47.72;99714.03;2065554;28;19949;-57
2022/08/31 01:08:04;;;;;;;;;;;;;;;26.20;47.41;99714.88;2066557;28;19917;-58
2022/08/31 01:09:05;;;;;;;;;;;;;;;26.19;47.35;99712.31;2066347;28;20363;-57
2022/08/31 01:10:07;;;;;;;;;;;;;;;26.20;47.57;99714.88;2065776;28;19917;-57
2022/08/31 01:11:08;;;;;;;;;;;;;;;26.19;47.67;99712.31;2066888;28;19914;-58
2022/08/31 01:12:10;;;;;;;;;;;;;;;26.19;47.42;99710.44;2057983;28;19918;-58
2022/08/31 01:13:11;;;;;;;;;;;;;;;26.20;47.62;99714.03;2055546;28;19925;-58
2022/08/31 01:14:12;;;;;;;;;;;;;;;26.19;47.32;99709.56;2060194;28;19922;-58
2022/08/31 01:15:14;;;;;;;;;;;;;;;26.19;47.37;99713.19;2061785;28;19917;-59
2022/08/31 01:16:20;;;;;;;;;;;;;;;26.20;47.65;99703.00;2051352;28;20536;-59
2022/08/31 01:17:20;;;;;;;;;;;;;;;26.19;47.30;99701.25;2052431;28;19962;-58
2022/08/31 01:18:22;;;;;;;;;;;;;;;26.19;47.59;99701.25;2060329;28;19922;-59
2022/08/31 01:19:34;;;;;;;;;;;;;;;26.18;47.30;99689.38;2067266;28;19925;-59
2022/08/31 01:20:34;;;;;;;;;;;;;;;26.17;47.54;99681.31;2066852;28;19922;-59
2022/08/31 01:21:40;;;;;;;;;;;;;;;26.18;47.57;99685.75;2065407;28;19924;-57
2022/08/31 01:22:59;;;;;;;;;;;;;;;26.17;47.63;99676.63;2059936;28;19909;-58
2022/08/31 01:24:00;;;;;;;;;;;;;;;26.17;47.61;99681.31;2067314;28;19913;-57
2022/08/31 01:25:01;;;;;;;;;;;;;;;26.17;47.36;99681.31;2065821;28;19943;-58
2022/08/31 01:26:02;;;;;;;;;;;;;;;26.17;47.65;99686.84;2068215;28;20307;-57
2022/08/31 01:27:03;;;;;;;;;;;;;;;26.16;47.43;99685.09;2065953;28;20451;-57
2022/08/31 01:28:06;;;;;;;;;;;;;;;26.17;47.67;99693.22;2067224;28;20104;-58
2022/08/31 01:29:06;;;;;;;;;;;;;;;26.16;47.76;99680.44;2067908;28;19921;-58
2022/08/31 01:30:10;;;;;;;;;;;;;;;26.16;47.44;99677.66;2066408;28;19917;-58
2022/08/31 01:31:18;;;;;;;;;;;;;;;26.17;47.45;99678.53;2067111;28;20407;-56
2022/08/31 01:32:18;;;;;;;;;;;;;;;26.15;47.51;99678.75;2059440;28;19910;-57
2022/08/31 01:33:19;;;;;;;;;;;;;;;26.16;47.43;99676.81;2054610;28;19961;-57
2022/08/31 01:34:19;;;;;;;;;;;;;;;26.17;47.42;99681.31;2067408;28;20264;-57
2022/08/31 01:35:19;;;;;;;;;;;;;;;26.16;47.69;99668.53;2065789;28;19910;-58
2022/08/31 01:36:20;;;;;;;;;;;;;;;26.17;47.63;99676.63;2066832;28;19959;-57
2022/08/31 01:37:20;;;;;;;;;;;;;;;26.17;47.51;99675.78;2066899;28;20655;-57
2022/08/31 01:38:21;;;;;;;;;;;;;;;26.17;47.57;99664.72;2064977;28;19975;-57
2022/08/31 01:39:21;;;;;;;;;;;;;;;26.17;47.44;99670.25;2065911;28;20016;-57
2022/08/31 01:40:33;;;;;;;;;;;;;;;26.17;47.72;99678.53;2063876;28;19953;-58
2022/08/31 01:41:33;;;;;;;;;;;;;;;26.17;47.58;99681.31;2065979;28;19917;-57
2022/08/31 01:42:34;;;;;;;;;;;;;;;26.17;47.52;99681.31;2061258;28;19922;-58
2022/08/31 01:43:34;;;;;;;;;;;;;;;26.17;47.60;99675.78;2064763;28;20514;-57
2022/08/31 01:44:35;;;;;;;;;;;;;;;26.17;47.47;99670.25;2067248;28;19968;-57
2022/08/31 01:45:35;;;;;;;;;;;;;;;26.18;47.49;99671.94;2067488;28;19925;-59
2022/08/31 01:46:35;;;;;;;;;;;;;;;26.17;47.32;99670.25;2066469;28;19924;-58
2022/08/31 01:47:37;;;;;;;;;;;;;;;26.17;47.37;99661.97;2067804;28;20672;-57
2022/08/31 01:48:38;;;;;;;;;;;;;;;26.17;47.37;99659.22;2066777;28;19918;-58
2022/08/31 01:49:38;;;;;;;;;;;;;;;26.18;47.60;99663.66;2066256;28;19924;-58
2022/08/31 01:50:39;;;;;;;;;;;;;;;26.17;47.38;99659.22;2061662;28;19945;-57
2022/08/31 01:51:39;;;;;;;;;;;;;;;26.18;47.37;99658.13;2065993;28;19925;-58
2022/08/31 01:52:40;;;;;;;;;;;;;;;26.16;47.54;99658.34;2067203;28;20602;-57
2022/08/31 01:53:42;;;;;;;;;;;;;;;26.17;47.61;99659.22;2065271;28;19913;-58
2022/08/31 01:54:42;;;;;;;;;;;;;;;26.17;47.42;99664.72;2065668;28;19918;-57
2022/08/31 01:55:43;;;;;;;;;;;;;;;26.18;47.27;99661.75;2066829;28;20798;-60
2022/08/31 01:56:45;;;;;;;;;;;;;;;26.17;47.64;99665.59;2066191;28;20391;-58
2022/08/31 01:57:45;;;;;;;;;;;;;;;26.17;47.34;99664.72;2067864;28;19918;-61
2022/08/31 01:58:46;;;;;;;;;;;;;;;26.19;47.43;99668.13;2064540;28;19913;-58
2022/08/31 01:59:46;;;;;;;;;;;;;;;26.18;47.35;99672.78;2067602;28;20707;-58
2022/08/31 02:00:46;;;;;;;;;;;;;;;26.17;47.27;99676.63;2067882;28;19917;-58
2022/08/31 02:01:49;;;;;;;;;;;;;;;26.17;47.61;99681.31;2066929;28;19924;-57
2022/08/31 02:02:49;;;;;;;;;;;;;;;26.17;47.51;99678.53;2066018;28;20051;-58
2022/08/31 02:03:50;;;;;;;;;;;;;;;26.17;47.34;99670.25;2067058;28;19957;-58
2022/08/31 02:04:50;;;;;;;;;;;;;;;26.16;47.59;99674.06;2064892;28;19949;-58
2022/08/31 02:05:50;;;;;;;;;;;;;;;26.16;47.40;99674.06;2066809;28;20599;-58
2022/08/31 02:06:52;;;;;;;;;;;;;;;26.16;47.49;99679.59;2067029;28;20196;-58
2022/08/31 02:07:52;;;;;;;;;;;;;;;26.16;47.30;99683.19;2067920;28;20353;-58
2022/08/31 02:08:53;;;;;;;;;;;;;;;26.15;47.23;99681.50;2064190;28;19917;-58
2022/08/31 02:09:53;;;;;;;;;;;;;;;26.16;47.61;99685.97;2063659;28;20549;-58
2022/08/31 02:10:53;;;;;;;;;;;;;;;26.16;47.37;99685.09;2057894;28;19918;-58
2022/08/31 02:11:54;;;;;;;;;;;;;;;26.16;47.60;99685.09;2064007;28;20004;-58
2022/08/31 02:12:54;;;;;;;;;;;;;;;26.15;47.33;99691.72;2066215;28;19910;-59
2022/08/31 02:13:54;;;;;;;;;;;;;;;26.16;47.43;99690.63;2066221;28;19940;-59
2022/08/31 02:14:55;;;;;;;;;;;;;;;26.16;47.67;99690.63;2064009;28;20147;-58
2022/08/31 02:15:55;;;;;;;;;;;;;;;26.16;47.40;99685.09;2067977;28;20138;-58
2022/08/31 02:16:55;;;;;;;;;;;;;;;26.15;47.69;99694.47;2065651;28;19957;-58
2022/08/31 02:17:56;;;;;;;;;;;;;;;26.15;47.67;99695.31;2066991;28;19925;-58
2022/08/31 02:18:56;;;;;;;;;;;;;;;26.16;47.42;99685.09;2050809;28;20435;-57
2022/08/31 02:19:57;;;;;;;;;;;;;;;26.16;47.37;99685.09;2055210;28;20536;-57
2022/08/31 02:20:57;;;;;;;;;;;;;;;26.15;47.40;99683.41;2066682;28;19921;-58
2022/08/31 02:21:57;;;;;;;;;;;;;;;26.15;47.71;99692.56;2066684;28;20323;-59
2022/08/31 02:23:01;;;;;;;;;;;;;;;26.16;47.66;99679.59;2066389;28;19917;-58
2022/08/31 02:24:02;;;;;;;;;;;;;;;26.16;47.52;99685.09;2068627;28;19945;-58
2022/08/31 02:25:04;;;;;;;;;;;;;;;26.16;47.42;99679.59;2063984;28;20064;-58
2022/08/31 02:26:04;;;;;;;;;;;;;;;26.16;47.53;99680.44;2067993;28;19918;-58
2022/08/31 02:27:04;;;;;;;;;;;;;;;26.17;47.42;99670.25;2067408;28;20760;-59
2022/08/31 02:28:05;;;;;;;;;;;;;;;26.16;47.38;99676.81;2064456;28;20661;-58
2022/08/31 02:29:06;;;;;;;;;;;;;;;26.15;47.37;99678.75;2071209;28;19971;-58
2022/08/31 02:30:08;;;;;;;;;;;;;;;26.17;47.31;99670.25;2068906;28;19917;-58
2022/08/31 02:31:08;;;;;;;;;;;;;;;26.16;47.33;99674.06;2065814;28;19917;-59
2022/08/31 02:32:10;;;;;;;;;;;;;;;26.17;47.38;99670.25;2064625;28;20521;-58
2022/08/31 02:33:10;;;;;;;;;;;;;;;26.16;47.65;99679.59;2066261;28;19960;-59
2022/08/31 02:34:10;;;;;;;;;;;;;;;26.16;47.35;99674.06;2066718;28;19927;-58
2022/08/31 02:35:11;;;;;;;;;;;;;;;26.17;47.47;99664.72;2065869;28;20369;-59
2022/08/31 02:36:11;;;;;;;;;;;;;;;26.16;47.27;99674.91;2066373;28;19918;-58
2022/08/31 02:37:12;;;;;;;;;;;;;;;26.17;47.59;99675.78;2065582;28;19923;-59
2022/08/31 02:38:12;;;;;;;;;;;;;;;26.17;47.38;99670.25;2066690;28;19918;-58
2022/08/31 02:39:13;;;;;;;;;;;;;;;26.16;47.28;99668.53;2067044;28;19964;-59
2022/08/31 02:40:13;;;;;;;;;;;;;;;26.16;47.29;99668.53;2067229;28;20445;-58
2022/08/31 02:41:16;;;;;;;;;;;;;;;26.16;47.27;99668.53;2065112;28;19923;-58
2022/08/31 02:42:16;;;;;;;;;;;;;;;26.15;47.25;99678.75;2066519;28;20575;-59
2022/08/31 02:43:17;;;;;;;;;;;;;;;26.16;47.45;99676.81;2064923;28;19913;-59
2022/08/31 02:44:17;;;;;;;;;;;;;;;26.15;47.28;99675.13;2066316;28;19958;-59
2022/08/31 02:45:18;;;;;;;;;;;;;;;26.16;47.31;99679.59;2073509;28;19913;-59
2022/08/31 02:46:18;;;;;;;;;;;;;;;26.16;47.57;99679.59;2066405;28;19918;-59
2022/08/31 02:47:18;;;;;;;;;;;;;;;26.15;47.52;99675.13;2066473;28;19917;-58
2022/08/31 02:48:19;;;;;;;;;;;;;;;26.15;47.31;99677.91;2061137;28;19964;-58
2022/08/31 02:49:20;;;;;;;;;;;;;;;26.15;47.23;99683.41;2061986;28;19925;-58
2022/08/31 02:50:20;;;;;;;;;;;;;;;26.14;47.32;99688.09;2067094;28;19922;-58
2022/08/31 02:51:21;;;;;;;;;;;;;;;26.14;47.43;99681.69;2066642;28;19917;-58
2022/08/31 02:52:21;;;;;;;;;;;;;;;26.14;47.30;99677.06;2066000;28;19918;-58
2022/08/31 02:53:21;;;;;;;;;;;;;;;26.14;47.55;99670.66;2060544;28;19952;-58
2022/08/31 02:54:22;;;;;;;;;;;;;;;26.14;47.30;99670.66;2061443;28;19917;-57
2022/08/31 02:55:23;;;;;;;;;;;;;;;26.13;47.52;99674.47;2057658;28;20096;-58
2022/08/31 02:56:24;;;;;;;;;;;;;;;26.13;47.31;99672.56;2061349;28;19914;-58
2022/08/31 02:57:25;;;;;;;;;;;;;;;26.14;47.55;99670.66;2063264;28;19937;-59
2022/08/31 02:58:25;;;;;;;;;;;;;;;26.13;47.44;99669.81;2067054;28;19967;-58
2022/08/31 02:59:26;;;;;;;;;;;;;;;26.14;47.61;99670.66;2064579;28;20394;-57
2022/08/31 03:00:27;;;;;;;;;;;;;;;26.14;47.69;99671.53;2066714;28;19920;-59
2022/08/31 03:01:28;;;;;;;;;;;;;;;26.13;47.66;99672.56;2064070;28;19917;-57
2022/08/31 03:02:28;;;;;;;;;;;;;;;26.14;47.59;99674.28;2071773;28;20000;-58
2022/08/31 03:03:28;;;;;;;;;;;;;;;26.15;47.61;99666.84;2053087;28;19977;-58
2022/08/31 03:04:29;;;;;;;;;;;;;;;26.14;47.62;99671.53;2059903;28;19937;-58
2022/08/31 03:05:30;;;;;;;;;;;;;;;26.13;47.61;99668.97;2065823;28;20326;-58
2022/08/31 03:06:31;;;;;;;;;;;;;;;26.14;47.59;99670.66;2066078;28;19917;-58
2022/08/31 03:07:32;;;;;;;;;;;;;;;26.14;47.26;99665.13;2063915;28;19921;-59
2022/08/31 03:08:32;;;;;;;;;;;;;;;26.14;47.48;99660.47;2066066;28;19956;-58
2022/08/31 03:09:33;;;;;;;;;;;;;;;26.14;47.44;99666.00;2062284;28;19913;-59
2022/08/31 03:10:33;;;;;;;;;;;;;;;26.14;47.38;99670.66;2066186;28;19960;-58
2022/08/31 03:11:34;;;;;;;;;;;;;;;26.14;47.70;99665.13;2065777;28;19918;-59
2022/08/31 03:12:35;;;;;;;;;;;;;;;26.14;47.20;99666.00;2067417;28;20588;-58
2022/08/31 03:13:36;;;;;;;;;;;;;;;26.14;47.53;99659.59;2063079;28;19925;-58
2022/08/31 03:14:37;;;;;;;;;;;;;;;26.14;47.34;99670.66;2066676;28;20357;-58
2022/08/31 03:15:37;;;;;;;;;;;;;;;26.14;47.60;99665.13;2064728;28;20017;-58
2022/08/31 03:16:39;;;;;;;;;;;;;;;26.14;47.51;99665.13;2066960;28;19924;-58
2022/08/31 03:17:39;;;;;;;;;;;;;;;26.14;47.54;99659.59;2066492;28;20275;-58
2022/08/31 03:18:39;;;;;;;;;;;;;;;26.14;47.56;99656.84;2065903;28;19995;-59
2022/08/31 03:19:40;;;;;;;;;;;;;;;26.14;47.48;99660.47;2060441;28;19937;-58
2022/08/31 03:20:40;;;;;;;;;;;;;;;26.14;47.48;99656.84;2065865;28;19944;-58
2022/08/31 03:21:40;;;;;;;;;;;;;;;26.14;47.21;99654.06;2067573;28;19914;-59
2022/08/31 03:22:40;;;;;;;;;;;;;;;26.13;47.30;99655.16;2063813;28;19964;-58
2022/08/31 03:23:41;;;;;;;;;;;;;;;26.14;47.28;99654.94;2064293;28;19910;-59
2022/08/31 03:24:42;;;;;;;;;;;;;;;26.14;47.53;99659.59;2056234;28;19947;-58
2022/08/31 03:25:43;;;;;;;;;;;;;;;26.13;47.42;99655.16;2065313;28;19928;-59
2022/08/31 03:26:46;;;;;;;;;;;;;;;26.14;47.51;99654.06;2063640;28;19913;-58
2022/08/31 03:27:47;;;;;;;;;;;;;;;26.13;47.54;99646.88;2064143;28;19960;-58
2022/08/31 03:28:47;;;;;;;;;;;;;;;26.13;47.22;99652.38;2057088;28;20031;-58
2022/08/31 03:29:47;;;;;;;;;;;;;;;26.13;47.44;99652.38;2054658;28;20462;-59
2022/08/31 03:30:48;;;;;;;;;;;;;;;26.13;47.44;99646.88;2061677;28;19924;-58
2022/08/31 03:31:48;;;;;;;;;;;;;;;26.12;47.53;99646.00;2066588;28;20232;-58
2022/08/31 03:32:49;;;;;;;;;;;;;;;26.12;47.23;99645.19;2063657;28;20335;-59
2022/08/31 03:33:50;;;;;;;;;;;;;;;26.13;47.14;99663.44;2066109;28;20016;-59
2022/08/31 03:34:54;;;;;;;;;;;;;;;26.12;47.22;99656.22;2066635;28;20394;-58
2022/08/31 03:35:55;;;;;;;;;;;;;;;26.13;47.45;99668.97;2064696;28;20173;-58
2022/08/31 03:36:55;;;;;;;;;;;;;;;26.12;47.23;99656.22;2066388;28;19975;-58
2022/08/31 03:37:56;;;;;;;;;;;;;;;26.12;47.49;99658.97;2065648;28;20592;-58
2022/08/31 03:38:56;;;;;;;;;;;;;;;26.12;47.48;99661.75;2066773;28;19925;-59
2022/08/31 03:39:57;;;;;;;;;;;;;;;26.11;47.49;99666.38;2064882;28;19914;-59
2022/08/31 03:40:57;;;;;;;;;;;;;;;26.12;47.44;99661.75;2065254;28;19924;-58
2022/08/31 03:41:58;;;;;;;;;;;;;;;26.12;47.39;99670.88;2065220;28;20641;-58
2022/08/31 03:42:58;;;;;;;;;;;;;;;26.11;47.26;99674.69;2065705;28;20392;-57
2022/08/31 03:44:00;;;;;;;;;;;;;;;26.12;47.49;99670.03;2065248;28;19913;-57
2022/08/31 03:45:01;;;;;;;;;;;;;;;26.12;47.24;99672.78;2066920;28;19948;-58
2022/08/31 03:46:03;;;;;;;;;;;;;;;26.12;47.61;99675.56;2065435;28;19913;-58
2022/08/31 03:47:03;;;;;;;;;;;;;;;26.13;47.51;99674.47;2066136;28;19980;-58
2022/08/31 03:48:05;;;;;;;;;;;;;;;26.11;47.67;99677.44;2065226;28;20019;-58
2022/08/31 03:49:06;;;;;;;;;;;;;;;26.13;47.41;99680.00;2065365;28;19918;-59
2022/08/31 03:50:07;;;;;;;;;;;;;;;26.13;47.30;99674.47;2067150;28;20173;-59
2022/08/31 03:51:07;;;;;;;;;;;;;;;26.11;47.26;99682.97;2066208;28;19948;-56
2022/08/31 03:52:07;;;;;;;;;;;;;;;26.12;47.30;99673.63;2066611;28;20076;-58
2022/08/31 03:53:08;;;;;;;;;;;;;;;26.12;47.42;99670.88;2058285;28;20414;-59
2022/08/31 03:54:09;;;;;;;;;;;;;;;26.12;47.27;99672.78;2054494;28;19961;-58
2022/08/31 03:55:10;;;;;;;;;;;;;;;26.13;47.53;99671.72;2066387;28;20395;-59
2022/08/31 03:56:10;;;;;;;;;;;;;;;26.13;47.29;99668.97;2066035;28;19917;-58
2022/08/31 03:57:11;;;;;;;;;;;;;;;26.12;47.41;99668.13;2066341;28;19932;-57
2022/08/31 03:58:11;;;;;;;;;;;;;;;26.12;47.46;99661.75;2058701;28;20328;-58
2022/08/31 03:59:12;;;;;;;;;;;;;;;26.12;47.19;99657.06;2064257;28;19921;-57
2022/08/31 04:00:13;;;;;;;;;;;;;;;26.12;47.46;99657.06;2072687;28;19917;-58
2022/08/31 04:01:13;;;;;;;;;;;;;;;26.13;47.32;99660.66;2066273;28;19972;-58
2022/08/31 04:02:13;;;;;;;;;;;;;;;26.12;47.45;99667.28;2066182;28;19925;-58
2022/08/31 04:03:13;;;;;;;;;;;;;;;26.13;47.33;99652.38;2066043;28;19927;-58
2022/08/31 04:04:14;;;;;;;;;;;;;;;26.12;47.25;99658.97;2066126;28;20073;-59
2022/08/31 04:05:16;;;;;;;;;;;;;;;26.13;47.17;99663.44;2066777;28;20532;-58
2022/08/31 04:06:17;;;;;;;;;;;;;;;26.11;47.33;99666.38;2064420;28;19914;-59
2022/08/31 04:07:17;;;;;;;;;;;;;;;26.12;47.48;99667.28;2067703;28;19941;-57
2022/08/31 04:08:18;;;;;;;;;;;;;;;26.12;47.45;99658.97;2066284;28;19965;-59
2022/08/31 04:09:18;;;;;;;;;;;;;;;26.11;47.21;99666.38;2066020;28;20020;-57
2022/08/31 04:10:19;;;;;;;;;;;;;;;26.12;47.33;99661.75;2065256;28;20493;-58
2022/08/31 04:11:19;;;;;;;;;;;;;;;26.11;47.50;99655.34;2066581;28;20665;-59
2022/08/31 04:12:20;;;;;;;;;;;;;;;26.10;47.25;99659.19;2062677;28;19924;-58
2022/08/31 04:13:22;;;;;;;;;;;;;;;26.11;47.41;99660.03;2066037;28;19918;-57
2022/08/31 04:14:22;;;;;;;;;;;;;;;26.11;47.19;99660.03;2064193;28;19913;-59
2022/08/31 04:15:23;;;;;;;;;;;;;;;26.10;47.42;99664.69;2063446;28;20523;-58
2022/08/31 04:16:23;;;;;;;;;;;;;;;26.10;47.11;99664.69;2065430;28;20317;-58
2022/08/31 04:17:24;;;;;;;;;;;;;;;26.09;47.13;99669.38;2065636;28;19980;-58
2022/08/31 04:18:24;;;;;;;;;;;;;;;26.10;47.42;99670.22;2066586;28;20165;-57
2022/08/31 04:19:24;;;;;;;;;;;;;;;26.10;47.40;99675.75;2063753;28;19927;-58
2022/08/31 04:20:25;;;;;;;;;;;;;;;26.09;47.23;99672.13;2056508;28;20177;-58
2022/08/31 04:21:26;;;;;;;;;;;;;;;26.10;47.33;99675.75;2065885;28;20435;-59
2022/08/31 04:22:26;;;;;;;;;;;;;;;26.11;47.21;99671.06;2064791;28;19921;-59
2022/08/31 04:23:28;;;;;;;;;;;;;;;26.10;47.48;99675.75;2066839;28;20422;-58
2022/08/31 04:24:29;;;;;;;;;;;;;;;26.09;47.29;99685.94;2065297;28;19920;-58
2022/08/31 04:25:30;;;;;;;;;;;;;;;26.09;47.48;99680.44;2065090;28;19952;-59
2022/08/31 04:26:32;;;;;;;;;;;;;;;26.10;47.45;99681.28;2057544;28;19953;-58
2022/08/31 04:27:32;;;;;;;;;;;;;;;26.11;47.35;99676.59;2064628;28;20000;-58
2022/08/31 04:28:33;;;;;;;;;;;;;;;26.09;47.40;99674.91;2067146;28;19976;-59
2022/08/31 04:29:33;;;;;;;;;;;;;;;26.10;47.43;99681.28;2066012;28;19922;-58
2022/08/31 04:30:36;;;;;;;;;;;;;;;26.09;47.39;99685.94;2065634;28;19917;-59
2022/08/31 04:31:36;;;;;;;;;;;;;;;26.11;47.24;99679.34;2066528;28;19936;-58
2022/08/31 04:32:37;;;;;;;;;;;;;;;26.09;47.26;99677.66;2065359;28;19920;-58
2022/08/31 04:33:37;;;;;;;;;;;;;;;26.10;47.19;99681.28;2067736;28;20016;-59
2022/08/31 04:34:38;;;;;;;;;;;;;;;26.09;47.10;99674.03;2066765;28;19922;-58
2022/08/31 04:35:39;;;;;;;;;;;;;;;26.10;47.17;99670.22;2066101;28;19999;-58
2022/08/31 04:36:39;;;;;;;;;;;;;;;26.10;47.35;99673.00;2068549;28;19917;-58
2022/08/31 04:37:40;;;;;;;;;;;;;;;26.10;47.43;99678.50;2066408;28;19960;-58
2022/08/31 04:38:41;;;;;;;;;;;;;;;26.09;47.46;99672.13;2069110;28;19917;-58
2022/08/31 04:39:43;;;;;;;;;;;;;;;26.09;47.21;99680.44;2067725;28;19921;-58
2022/08/31 04:40:43;;;;;;;;;;;;;;;26.09;47.16;99674.91;2065438;28;19921;-59
2022/08/31 04:41:43;;;;;;;;;;;;;;;26.11;47.28;99682.13;2059822;28;20299;-59
2022/08/31 04:42:44;;;;;;;;;;;;;;;26.11;47.35;99682.13;2063250;28;20493;-58
2022/08/31 04:43:49;;;;;;;;;;;;;;;26.09;47.43;99668.50;2068241;28;20310;-55
2022/08/31 04:44:50;;;;;;;;;;;;;;;26.10;47.16;99675.75;2059766;28;19918;-58
2022/08/31 04:45:51;;;;;;;;;;;;;;;26.09;47.43;99669.38;2062108;28;19918;-58
2022/08/31 04:46:51;;;;;;;;;;;;;;;26.09;47.12;99674.91;2067563;28;20452;-59
2022/08/31 04:47:51;;;;;;;;;;;;;;;26.10;47.19;99667.47;2066256;28;19918;-58
2022/08/31 04:48:52;;;;;;;;;;;;;;;26.11;47.35;99671.06;2067946;28;19967;-58
2022/08/31 04:49:52;;;;;;;;;;;;;;;26.09;47.10;99669.38;2067058;28;19965;-58
2022/08/31 04:50:58;;;;;;;;;;;;;;;26.09;47.34;99666.63;2066865;28;19945;-59
2022/08/31 04:51:59;;;;;;;;;;;;;;;26.09;47.38;99658.34;2066968;28;20337;-58
2022/08/31 04:52:59;;;;;;;;;;;;;;;26.08;47.41;99662.13;2065899;28;19972;-59
2022/08/31 04:54:00;;;;;;;;;;;;;;;26.08;47.17;99669.56;2067132;28;19922;-58
2022/08/31 04:55:00;;;;;;;;;;;;;;;26.08;47.33;99667.66;2068640;28;19939;-58
2022/08/31 04:56:12;;;;;;;;;;;;;;;26.07;47.14;99663.22;2066034;28;19917;-58
2022/08/31 04:57:12;;;;;;;;;;;;;;;26.08;47.32;99673.19;2066530;28;19921;-58
2022/08/31 04:58:14;;;;;;;;;;;;;;;26.08;47.08;99670.41;2068512;28;19913;-58
2022/08/31 04:59:15;;;;;;;;;;;;;;;26.07;47.17;99671.50;2064985;28;19914;-58
2022/08/31 05:00:15;;;;;;;;;;;;;;;26.07;47.39;99679.78;2068609;28;20268;-59
2022/08/31 05:01:17;;;;;;;;;;;;;;;26.07;47.34;99679.78;2067989;28;19921;-59
2022/08/31 05:02:17;;;;;;;;;;;;;;;26.07;47.29;99682.53;2067329;28;20455;-58
2022/08/31 05:03:18;;;;;;;;;;;;;;;26.07;47.26;99682.53;2064521;28;19921;-58
2022/08/31 05:04:22;;;;;;;;;;;;;;;26.07;47.11;99677.00;2066326;28;19937;-58
2022/08/31 05:05:23;;;;;;;;;;;;;;;26.07;47.48;99677.00;2058807;28;19945;-58
2022/08/31 05:06:25;;;;;;;;;;;;;;;26.07;47.37;99677.00;2067838;28;19918;-58
2022/08/31 05:07:26;;;;;;;;;;;;;;;26.07;47.40;99679.78;2071047;28;20008;-58
2022/08/31 05:08:27;;;;;;;;;;;;;;;26.07;47.34;99671.50;2066753;28;19960;-59
2022/08/31 05:09:28;;;;;;;;;;;;;;;26.07;47.33;99674.25;2068117;28;19910;-58
2022/08/31 05:10:28;;;;;;;;;;;;;;;26.07;47.30;99671.50;2067049;28;19921;-59
2022/08/31 05:11:28;;;;;;;;;;;;;;;26.07;47.14;99677.00;2066934;28;19953;-59
2022/08/31 05:12:29;;;;;;;;;;;;;;;26.07;47.30;99674.25;2067399;28;19987;-59
2022/08/31 05:13:30;;;;;;;;;;;;;;;26.07;47.09;99670.66;2063353;28;20304;-59
2022/08/31 05:14:30;;;;;;;;;;;;;;;26.06;47.39;99669.78;2065838;28;20679;-59
2022/08/31 05:15:31;;;;;;;;;;;;;;;26.07;47.18;99671.50;2065312;28;19916;-59
2022/08/31 05:16:32;;;;;;;;;;;;;;;26.07;47.08;99671.50;2066845;28;20009;-60
2022/08/31 05:17:32;;;;;;;;;;;;;;;26.07;47.36;99671.50;2066593;28;20128;-59
2022/08/31 05:18:33;;;;;;;;;;;;;;;26.07;47.13;99670.66;2066582;28;19951;-59
2022/08/31 05:19:33;;;;;;;;;;;;;;;26.07;47.39;99671.50;2066150;28;20583;-59
2022/08/31 05:20:33;;;;;;;;;;;;;;;26.07;47.07;99671.50;2067046;28;19918;-58
2022/08/31 05:21:35;;;;;;;;;;;;;;;26.07;47.15;99671.50;2065178;28;19923;-57
2022/08/31 05:22:36;;;;;;;;;;;;;;;26.06;47.39;99675.28;2065773;28;19917;-58
2022/08/31 05:23:36;;;;;;;;;;;;;;;26.07;47.33;99671.50;2068195;28;19928;-59
2022/08/31 05:24:37;;;;;;;;;;;;;;;26.07;47.11;99665.13;2067268;28;19918;-58